createdAt,value
2018-01-18T00:02:22.915Z,93.40
2018-01-18T00:11:59.915Z,92.83
2018-01-18T00:21:36.376Z,95.70
2018-01-18T00:31:12.789Z,99.77
2018-01-18T00:40:49.312Z,99.99
2018-01-18T00:50:26.493Z,99.99
2018-01-18T01:00:03.263Z,99.99
2018-01-18T01:09:38.739Z,99.99
2018-01-18T01:19:18.843Z,99.99
2018-01-18T01:28:55.208Z,99.99
2018-01-18T01:38:31.844Z,99.99
2018-01-18T01:48:07.899Z,99.99
2018-01-18T01:57:44.244Z,99.99
2018-01-18T02:07:20.941Z,99.99
2018-01-18T02:16:57.417Z,99.99
2018-01-18T02:26:33.333Z,99.99
2018-01-18T02:36:09.794Z,99.99
2018-01-18T02:45:46.398Z,99.99
2018-01-18T02:55:22.974Z,99.99
2018-01-18T03:04:59.670Z,99.99
2018-01-18T03:14:36.768Z,99.99
2018-01-18T03:24:12.902Z,99.99
2018-01-18T03:33:49.425Z,99.99
2018-01-18T03:43:30.381Z,99.99
2018-01-18T03:52:59.989Z,99.99
2018-01-18T04:02:36.949Z,99.99
2018-01-18T04:12:13.734Z,99.99
2018-01-18T04:21:50.365Z,99.99
2018-01-18T04:31:27.341Z,99.99
2018-01-18T04:41:04.573Z,99.99
2018-01-18T04:50:41.168Z,99.99
2018-01-18T05:00:18.147Z,99.99
2018-01-18T05:09:54.998Z,99.99
2018-01-18T05:19:31.737Z,99.99
2018-01-18T05:29:08.859Z,99.99
2018-01-18T05:38:45.733Z,99.99
2018-01-18T05:48:22.287Z,99.99
2018-01-18T05:57:58.450Z,99.99
2018-01-18T06:07:34.845Z,99.99
2018-01-18T06:17:11.345Z,99.99
2018-01-18T06:26:47.872Z,99.99
2018-01-18T06:36:25.490Z,99.57
2018-01-18T06:46:02.390Z,99.99
2018-01-18T06:55:43.193Z,98.01
2018-01-18T07:05:16.759Z,99.99
2018-01-18T07:14:45.420Z,99.99
2018-01-18T07:24:21.813Z,99.99
2018-01-18T07:33:58.948Z,99.99
2018-01-18T07:43:36.122Z,99.99
2018-01-18T07:53:12.732Z,99.99
2018-01-18T08:02:49.865Z,98.75
2018-01-18T08:12:27.438Z,97.88
2018-01-18T08:22:04.608Z,95.01
2018-01-18T08:31:42.125Z,92.79
2018-01-18T08:41:20.129Z,92.91
2018-01-18T08:50:57.649Z,90.26
2018-01-18T09:00:34.756Z,91.16
2018-01-18T09:10:11.033Z,92.97
2018-01-18T09:19:47.700Z,85.39
2018-01-18T09:29:24.251Z,86.27
2018-01-18T09:39:04.539Z,86.47
2018-01-18T09:48:33.686Z,80.05
2018-01-18T09:58:10.834Z,77.06
2018-01-18T10:07:48.209Z,76.02
2018-01-18T10:17:25.154Z,75.19
2018-01-18T10:27:02.135Z,74.84
2018-01-18T10:36:38.752Z,71.91
2018-01-18T10:46:14.996Z,72.42
2018-01-18T10:55:51.500Z,72.87
2018-01-18T11:05:27.736Z,74.67
2018-01-18T11:15:04.068Z,76.75
2018-01-18T11:24:44.626Z,73.11
2018-01-18T11:34:17.138Z,79.65
2018-01-18T11:43:46.103Z,73.32
2018-01-18T11:53:22.413Z,74.53
2018-01-18T12:03:00.037Z,70.31
2018-01-18T12:12:41.052Z,68.90
2018-01-18T12:22:10.426Z,67.77
2018-01-18T12:31:48.166Z,63.84
2018-01-18T12:41:29.212Z,60.80
2018-01-18T12:50:58.722Z,53.50
2018-01-18T13:00:41.494Z,55.93
2018-01-18T13:10:08.503Z,53.28
2018-01-18T13:19:44.549Z,54.38
2018-01-18T13:29:20.691Z,53.01
2018-01-18T13:39:01.162Z,48.71
2018-01-18T13:48:45.305Z,47.06
2018-01-18T13:58:14.530Z,46.42
2018-01-18T14:07:41.952Z,53.53
2018-01-18T14:17:13.541Z,55.59
2018-01-18T14:27:00.731Z,53.94
2018-01-18T14:36:21.989Z,63.17
2018-01-18T14:46:01.753Z,69.38
2018-01-18T14:55:28.455Z,70.59
2018-01-18T15:05:03.643Z,74.05
2018-01-18T15:14:39.576Z,77.06
2018-01-18T15:24:14.474Z,75.78
2018-01-18T15:33:49.868Z,80.02
2018-01-18T15:43:25.524Z,79.94
2018-01-18T15:53:01.755Z,84.30
2018-01-18T16:02:36.974Z,86.25
2018-01-18T16:12:13.028Z,89.58
2018-01-18T16:21:48.912Z,90.70
2018-01-18T16:31:25.048Z,90.33
2018-01-18T16:41:00.439Z,92.21
2018-01-18T16:50:38.016Z,92.77
2018-01-18T17:00:14.068Z,94.49
2018-01-18T17:09:49.961Z,94.85
2018-01-18T17:19:26.224Z,95.27
2018-01-18T17:29:02.809Z,95.84
2018-01-18T17:38:43.254Z,98.04
2018-01-18T17:48:12.274Z,97.20
2018-01-18T17:57:49.052Z,96.78
2018-01-18T18:07:25.652Z,97.30
2018-01-18T18:17:00.832Z,96.36
2018-01-18T18:26:40.876Z,97.41
2018-01-18T18:36:21.432Z,98.14
2018-01-18T18:45:54.131Z,98.29
2018-01-18T18:55:22.554Z,99.97
2018-01-18T19:04:59.198Z,99.44
2018-01-18T19:14:34.191Z,99.55
2018-01-18T19:24:14.930Z,99.99
2018-01-18T19:33:49.946Z,99.70
2018-01-18T19:43:33.994Z,99.80
2018-01-18T19:53:02.409Z,99.99
2018-01-18T20:02:39.120Z,99.49
2018-01-18T20:12:15.704Z,99.99
2018-01-18T20:21:52.474Z,99.99
2018-01-18T20:31:29.073Z,99.99
2018-01-18T20:41:05.802Z,99.99
2018-01-18T20:50:42.033Z,99.99
2018-01-18T21:00:18.571Z,99.99
2018-01-18T21:09:55.367Z,99.99
2018-01-18T21:19:32.380Z,99.99
2018-01-18T21:29:08.687Z,99.99
2018-01-18T21:38:45.167Z,99.99
2018-01-18T21:48:21.955Z,99.99
2018-01-18T21:57:59.165Z,99.99
2018-01-18T22:07:35.404Z,99.99
2018-01-18T22:17:15.981Z,99.99
2018-01-18T22:26:48.690Z,99.99
2018-01-18T22:36:18.252Z,99.99
2018-01-18T22:45:55.040Z,99.99
2018-01-18T22:55:31.710Z,99.99
2018-01-18T23:05:07.945Z,99.99
2018-01-18T23:14:44.837Z,99.99
2018-01-18T23:24:21.500Z,99.99
2018-01-18T23:33:58.335Z,99.99
2018-01-18T23:43:36.126Z,99.99
2018-01-18T23:53:12.451Z,99.99
